Pagrindinis puslapis
METAR-TAF:

METAR-TAF

Oro uostai :

Havana, Kuba

platuma: 22-59N, ilguma: 082-24W, Aukštis: 59 m

Dabartinis oras

Ataskaita buvo paskelbta 32 minutes, ne 06:55 UTC
Vėjas 2 kt iš Vakarų
Temperatūra 14°C
Drėgmė 100%
Slėgis 1020 hPa
Matomumas: 9000 m

METAR: MUHA 070655Z 26002KT 9000 NSC 14/14 Q1020

Laikas: 02:27 (07:27 UTC)

Prognozė

Ataskaita buvo paskelbta 2 valandos ir 27 minutes, ne 05:00 UTC
Prognozė galioja nuo 07 metu 06 UTC su 08 metu 06 UTC
Vėjas 3 kt nuo kintamojo kryptimis
Matomumas: 9000 m
Mažai debesys ne aukštis 3000 ft
Tapsmas
nuo 07 metu 15 UTC su 07 metu 18 UTC
Vėjas 10 kt iš Šiaurės/Šiaurės Rytų
Tapsmas
nuo 08 metu 01 UTC su 08 metu 03 UTC
Vėjas 3 kt nuo kintamojo kryptimis

TAF: MUHA 070500Z 0706/0806 VRB03KT 9000 FEW030 BECMG 0715/0718 02010KT BECMG 0801/0803 VRB03KT

Orai ataskaitas ir orų prognozės (METAR, TAF).

turimą stotys yra geltonos ir raudonos taškus žemėlapyje.

Perkelti pele per norėdami pamatyti stoties vardą.

Tada spustelėkite, norėdami matyti oro stebėjimo ir prognozės.

Norėdami pakeisti žemėlapį: spustelėkite ant žalios mygtukų su juodo kryžiaus žemyn,; žalią mygtuką su brūkšneliu, jei norite nutolinti; arba žalių rodyklių gretimoms žemėlapius.


METAR-TAF: